Time;durP1;ratioP1;P1;durP2;ratioP2;P2;SDS_P1;SDS_P2;PMS_P1;PMS_P2;Temp;Humidity;BMP_temperature;BMP_pressure;BME280_temperature;BME280_humidity;BME280_pressure;Samples;Min_cycle;Max_cycle;Signal;HPM_P1;HPM_P2
2023/10/13 00:00:41;;;;;;;23.90;16.58;;;15.10;99.90;;;;;;4958292;29;20416;-76
2023/10/13 00:03:15;;;;;;;29.90;17.05;;;15.20;99.90;;;;;;4957754;29;20059;-75
2023/10/13 00:05:42;;;;;;;27.17;15.85;;;15.10;99.90;;;;;;4957894;29;20032;-76
2023/10/13 00:08:09;;;;;;;26.40;15.93;;;15.10;99.90;;;;;;4957802;29;20027;-76
2023/10/13 00:10:35;;;;;;;27.27;16.38;;;15.10;99.90;;;;;;4958077;29;20042;-75
2023/10/13 00:13:12;;;;;;;26.65;16.35;;;15.10;99.90;;;;;;4957779;29;20374;-77
2023/10/13 00:15:57;;;;;;;24.17;15.80;;;15.10;99.90;;;;;;4955470;29;20050;-77
2023/10/13 00:18:33;;;;;;;23.55;15.80;;;15.10;99.90;;;;;;4957703;29;20051;-76
2023/10/13 00:21:01;;;;;;;24.35;16.90;;;15.10;99.90;;;;;;4957652;29;20027;-77
2023/10/13 00:23:27;;;;;;;24.27;15.90;;;15.10;99.90;;;;;;4957536;29;20019;-76
2023/10/13 00:25:56;;;;;;;25.70;15.85;;;15.10;99.90;;;;;;4957762;29;20051;-76
2023/10/13 00:28:26;;;;;;;23.27;16.13;;;15.10;99.90;;;;;;4957375;29;20446;-77
2023/10/13 00:31:00;;;;;;;23.27;15.63;;;15.20;99.90;;;;;;4955093;28;20038;-76
2023/10/13 00:33:27;;;;;;;23.83;16.02;;;15.00;99.90;;;;;;4957253;29;20031;-77
2023/10/13 00:35:56;;;;;;;23.40;15.82;;;15.00;99.90;;;;;;4939455;29;20039;-77
2023/10/13 00:38:23;;;;;;;23.52;14.25;;;14.90;99.90;;;;;;4940228;29;20043;-75
2023/10/13 00:40:52;;;;;;;22.55;15.95;;;14.80;99.90;;;;;;4940133;29;20023;-76
2023/10/13 00:45:54;;;;;;;25.40;15.60;;;14.80;99.90;;;;;;4957177;29;20147;-75
2023/10/13 00:48:38;;;;;;;25.60;15.95;;;14.90;99.90;;;;;;4917535;29;20051;-76
2023/10/13 00:51:06;;;;;;;29.45;15.05;;;14.90;99.90;;;;;;4926636;29;20468;-77
2023/10/13 00:53:39;;;;;;;23.15;15.93;;;14.90;99.90;;;;;;4936620;29;20395;-76
2023/10/13 00:56:26;;;;;;;24.98;15.52;;;14.80;99.90;;;;;;4938401;29;20028;-76
2023/10/13 00:58:57;;;;;;;25.88;15.05;;;14.70;99.90;;;;;;4937714;29;20095;-77
2023/10/13 01:01:32;;;;;;;24.52;15.48;;;14.70;99.90;;;;;;4936654;29;20050;-77
2023/10/13 01:04:04;;;;;;;24.40;15.60;;;14.70;99.90;;;;;;4937825;29;20030;-77
2023/10/13 01:06:31;;;;;;;25.67;16.90;;;14.80;99.90;;;;;;4918690;29;20040;-76
2023/10/13 01:09:17;;;;;;;25.75;17.38;;;14.70;99.90;;;;;;4937822;29;20371;-77
2023/10/13 01:11:47;;;;;;;25.92;16.48;;;14.60;99.90;;;;;;4937564;29;20353;-77
2023/10/13 01:14:18;;;;;;;28.52;16.38;;;14.60;99.90;;;;;;4937604;29;20361;-76
2023/10/13 01:16:45;;;;;;;25.70;16.77;;;14.60;99.90;;;;;;4937542;29;20082;-76
2023/10/13 01:19:13;;;;;;;25.15;15.90;;;14.40;99.90;;;;;;4936097;29;20040;-76
2023/10/13 01:21:40;;;;;;;28.35;15.90;;;14.40;99.90;;;;;;4937263;29;20122;-76
2023/10/13 01:24:07;;;;;;;27.15;17.80;;;14.30;99.90;;;;;;4937437;29;20107;-77
2023/10/13 01:26:38;;;;;;;25.55;15.68;;;14.30;99.90;;;;;;4937307;29;20020;-76
2023/10/13 01:29:12;;;;;;;21.63;16.15;;;14.20;99.90;;;;;;4937321;29;20024;-76
2023/10/13 01:31:45;;;;;;;24.25;15.88;;;14.30;99.90;;;;;;4937224;29;20475;-75
2023/10/13 01:34:21;;;;;;;25.88;17.05;;;14.30;99.90;;;;;;4935911;29;20130;-76
2023/10/13 01:36:53;;;;;;;25.10;16.15;;;14.30;99.90;;;;;;4935945;29;20030;-76
2023/10/13 01:39:26;;;;;;;22.08;15.93;;;14.20;99.90;;;;;;4935861;29;20039;-76
2023/10/13 01:41:56;;;;;;;27.92;15.93;;;14.20;99.90;;;;;;4936720;29;20036;-76
2023/10/13 01:44:32;;;;;;;25.35;15.02;;;14.20;99.90;;;;;;4936880;29;20101;-76
2023/10/13 01:46:59;;;;;;;21.92;14.93;;;14.20;99.90;;;;;;4945088;29;20479;-77
2023/10/13 01:49:26;;;;;;;25.83;15.88;;;;;;;;;;4938933;29;20518;-76
2023/10/13 01:51:52;;;;;;;21.88;15.20;;;14.30;99.90;;;;;;4955603;29;20039;-76
2023/10/13 01:54:20;;;;;;;26.80;17.25;;;;;;;;;;4938760;29;20118;-76
2023/10/13 01:56:48;;;;;;;21.52;14.48;;;;;;;;;;4938709;29;20027;-77
2023/10/13 01:59:15;;;;;;;19.58;14.45;;;;;;;;;;4938575;29;20039;-76
2023/10/13 02:01:41;;;;;;;22.42;14.77;;;;;;;;;;4922957;29;20027;-76
2023/10/13 02:04:10;;;;;;;19.70;14.48;;;14.10;99.90;;;;;;4935518;29;20027;-77
2023/10/13 02:06:37;;;;;;;19.23;14.85;;;13.90;99.90;;;;;;4937075;29;20091;-76
2023/10/13 02:09:12;;;;;;;29.92;17.65;;;13.90;99.90;;;;;;4955975;29;20443;-77
2023/10/13 02:11:40;;;;;;;22.85;16.95;;;13.90;99.90;;;;;;4953768;29;20035;-77
2023/10/13 02:14:06;;;;;;;21.70;15.82;;;14.00;99.90;;;;;;4954469;28;20055;-77
2023/10/13 02:16:32;;;;;;;20.95;14.68;;;13.90;99.90;;;;;;4955217;29;20379;-76
2023/10/13 02:19:04;;;;;;;28.75;18.20;;;14.00;99.90;;;;;;4934927;29;20044;-76
2023/10/13 02:21:38;;;;;;;23.77;15.63;;;14.00;99.90;;;;;;4934905;29;20024;-77
2023/10/13 02:24:30;;;;;;;27.17;17.02;;;14.00;99.90;;;;;;4935036;29;20031;-77
2023/10/13 02:26:54;;;;;;;25.88;17.20;;;14.00;99.90;;;;;;4927326;29;20035;-76
2023/10/13 02:29:20;;;;;;;40.83;24.00;;;14.00;99.90;;;;;;4936361;29;20559;-77
2023/10/13 02:31:54;;;;;;;31.83;19.35;;;14.10;99.90;;;;;;4954123;28;20031;-77
2023/10/13 02:34:23;;;;;;;28.10;18.77;;;14.00;99.90;;;;;;4955057;29;20053;-78
2023/10/13 02:36:49;;;;;;;49.90;28.90;;;14.00;99.90;;;;;;4955169;29;20070;-77
2023/10/13 02:39:16;;;;;;;34.25;22.92;;;14.00;99.90;;;;;;4953743;28;20035;-77
2023/10/13 02:41:48;;;;;;;41.90;25.13;;;14.00;99.90;;;;;;4954009;28;20023;-76
2023/10/13 02:44:27;;;;;;;30.73;19.15;;;14.00;99.90;;;;;;4955126;29;20114;-76
2023/10/13 02:46:56;;;;;;;31.15;19.65;;;14.00;99.90;;;;;;4954345;29;20514;-76
2023/10/13 02:49:26;;;;;;;28.38;19.45;;;14.00;99.90;;;;;;4944300;29;20059;-77
2023/10/13 02:52:08;;;;;;;41.00;20.27;;;14.00;99.90;;;;;;4940922;29;20028;-76
2023/10/13 02:54:50;;;;;;;30.63;18.60;;;14.10;99.90;;;;;;4954723;29;20383;-77
2023/10/13 02:57:17;;;;;;;27.20;18.60;;;14.00;99.90;;;;;;4954976;29;20086;-77
2023/10/13 02:59:47;;;;;;;32.47;18.88;;;14.00;99.90;;;;;;4937931;29;20063;-76
2023/10/13 03:02:27;;;;;;;34.33;19.33;;;13.90;99.90;;;;;;4937552;29;20039;-77
2023/10/13 03:04:59;;;;;;;28.55;19.30;;;13.90;99.90;;;;;;4954730;29;20038;-77
2023/10/13 03:07:29;;;;;;;26.55;17.67;;;13.90;99.90;;;;;;4953461;28;20119;-77
2023/10/13 03:10:00;;;;;;;29.13;18.20;;;13.80;99.90;;;;;;4955013;29;20110;-76
2023/10/13 03:12:32;;;;;;;32.65;18.73;;;13.80;99.90;;;;;;4954947;29;20074;-77
2023/10/13 03:15:17;;;;;;;25.92;17.67;;;13.90;99.90;;;;;;4954693;29;20078;-77
2023/10/13 03:17:44;;;;;;;28.13;18.45;;;13.80;99.90;;;;;;4953106;28;20035;-77
2023/10/13 03:20:15;;;;;;;27.67;17.35;;;13.80;99.90;;;;;;4954754;29;20074;-76
2023/10/13 03:22:47;;;;;;;25.65;17.38;;;13.80;99.90;;;;;;4954194;29;20032;-77
2023/10/13 03:25:23;;;;;;;26.73;17.58;;;13.90;99.90;;;;;;4953508;29;20038;-76
2023/10/13 03:30:21;;;;;;;28.50;17.95;;;13.90;99.90;;;;;;4954862;29;20023;-77
2023/10/13 03:32:54;;;;;;;28.90;17.13;;;13.90;99.90;;;;;;4954423;29;20471;-77
2023/10/13 03:35:24;;;;;;;29.45;16.92;;;14.00;99.90;;;;;;4954579;29;20042;-77
2023/10/13 03:37:53;;;;;;;27.65;18.25;;;14.00;99.90;;;;;;4954226;29;20039;-76
2023/10/13 03:43:12;;;;;;;28.98;17.08;;;14.00;99.90;;;;;;4954224;29;20046;-77
2023/10/13 03:45:44;;;;;;;31.38;16.90;;;14.00;99.90;;;;;;4932376;29;20034;-75
2023/10/13 03:51:06;;;;;;;23.10;15.98;;;14.00;99.90;;;;;;4943541;29;20379;-76
2023/10/13 03:53:38;;;;;;;26.73;17.63;;;13.90;99.90;;;;;;4942330;29;20030;-75
2023/10/13 03:56:25;;;;;;;26.40;16.02;;;13.90;99.90;;;;;;4941857;29;20122;-74
2023/10/13 03:58:53;;;;;;;21.40;15.52;;;13.90;99.90;;;;;;4943378;29;20050;-74
2023/10/13 04:01:31;;;;;;;26.92;15.75;;;13.80;99.90;;;;;;4947674;29;20026;-75
2023/10/13 04:04:09;;;;;;;25.25;16.63;;;13.70;99.90;;;;;;4948353;28;20455;-76
2023/10/13 04:17:22;;;;;;;24.20;15.43;;;13.60;99.90;;;;;;4955133;29;20028;-75
2023/10/13 04:34:18;;;;;;;28.52;16.40;;;13.70;99.90;;;;;;4957241;29;20019;-76
2023/10/13 04:36:36;;;;;;;21.65;14.13;;;13.60;99.90;;;;;;4949952;29;20035;-76
2023/10/13 04:39:09;;;;;;;23.85;14.13;;;13.70;99.90;;;;;;4957085;29;20043;-77
2023/10/13 04:49:29;;;;;;;24.33;15.80;;;13.70;99.90;;;;;;4957012;29;20041;-75
2023/10/13 04:51:59;;;;;;;35.85;15.70;;;13.60;99.90;;;;;;4957109;29;20143;-76
2023/10/13 06:29:55;;;;;;;26.85;15.50;;;16.40;99.90;;;;;;4955029;29;20035;-76
2023/10/13 06:32:25;;;;;;;27.92;16.42;;;16.60;99.90;;;;;;4955134;29;20071;-76
2023/10/13 06:34:58;;;;;;;27.33;15.43;;;16.80;99.90;;;;;;4955168;29;20027;-76
2023/10/13 06:37:30;;;;;;;28.00;17.08;;;17.00;99.90;;;;;;4954802;29;20035;-76
2023/10/13 06:40:14;;;;;;;26.20;16.83;;;17.10;99.90;;;;;;4955042;29;20043;-76
2023/10/13 10:53:43;;;;;;;22.38;7.43;;;25.40;96.00;;;;;;4953627;29;20202;-75
2023/10/13 10:58:59;;;;;;;16.42;7.40;;;25.30;95.90;;;;;;4954695;29;20039;-77
2023/10/13 11:01:46;;;;;;;16.65;7.53;;;25.40;96.50;;;;;;4954813;29;20023;-75
2023/10/13 11:07:23;;;;;;;12.85;7.15;;;25.40;95.40;;;;;;4954525;29;20395;-76
2023/10/13 11:09:52;;;;;;;15.02;7.45;;;25.50;95.10;;;;;;4954770;29;21340;-76
2023/10/13 11:16:24;;;;;;;17.02;8.02;;;25.50;91.10;;;;;;4960152;29;20484;-76
2023/10/13 11:19:05;;;;;;;19.27;7.22;;;25.60;94.50;;;;;;4961225;28;20518;-76
2023/10/13 11:21:32;;;;;;;16.25;7.22;;;;;;;;;;4961023;28;20019;-77
2023/10/13 11:24:08;;;;;;;15.43;8.23;;;25.80;94.40;;;;;;4961073;28;20027;-78
2023/10/13 11:26:50;;;;;;;19.15;8.18;;;25.80;98.00;;;;;;4960984;29;20042;-74
2023/10/13 11:29:20;;;;;;;14.80;7.55;;;25.80;96.80;;;;;;4960832;29;20027;-75
2023/10/13 11:39:42;;;;;;;18.73;9.25;;;25.70;98.70;;;;;;4960772;29;20050;-78
2023/10/13 11:42:11;;;;;;;17.13;7.47;;;;;;;;;;4960535;28;20475;-75
2023/10/13 11:44:43;;;;;;;18.25;8.32;;;25.80;97.00;;;;;;4960942;29;20491;-77
2023/10/13 11:49:58;;;;;;;15.20;7.38;;;25.90;92.00;;;;;;4961042;28;20035;-75
2023/10/13 11:52:28;;;;;;;16.50;7.53;;;25.90;92.00;;;;;;4960982;28;20388;-75
2023/10/13 11:54:54;;;;;;;15.57;7.78;;;25.90;92.00;;;;;;4960993;29;20035;-75
2023/10/13 11:57:21;;;;;;;11.90;7.03;;;25.90;93.00;;;;;;4960871;29;20118;-75
2023/10/13 11:59:53;;;;;;;15.48;7.68;;;26.00;94.20;;;;;;4961087;29;20054;-75
2023/10/13 12:04:53;;;;;;;14.10;7.03;;;25.90;92.20;;;;;;4955392;29;20478;-75
2023/10/13 12:07:20;;;;;;;13.55;6.30;;;26.00;94.40;;;;;;4960866;28;20107;-75
2023/10/13 12:10:03;;;;;;;12.55;5.68;;;26.00;91.70;;;;;;4960687;28;20483;-76
2023/10/13 12:12:30;;;;;;;15.00;6.95;;;26.10;92.50;;;;;;4960386;29;20023;-76
2023/10/13 12:14:57;;;;;;;13.73;7.13;;;26.20;92.70;;;;;;4960186;28;20015;-76
2023/10/13 12:17:31;;;;;;;14.32;7.05;;;26.20;91.70;;;;;;4960663;29;20037;-75
2023/10/13 12:20:10;;;;;;;18.63;9.20;;;26.10;91.90;;;;;;4960402;29;20465;-76
2023/10/13 12:22:42;;;;;;;20.38;10.27;;;26.20;92.80;;;;;;4960540;29;20027;-76
2023/10/13 12:27:57;;;;;;;18.17;10.65;;;26.10;93.30;;;;;;4957314;29;20019;-76
2023/10/13 12:33:27;;;;;;;23.73;11.95;;;26.00;92.90;;;;;;4917372;29;20056;-76
2023/10/13 12:36:30;;;;;;;19.13;11.95;;;26.10;93.60;;;;;;4917188;29;20043;-76
2023/10/13 12:50:24;;;;;;;17.10;9.88;;;26.00;93.70;;;;;;4879240;29;20049;-76
2023/10/13 12:52:50;;;;;;;16.85;8.10;;;26.00;93.50;;;;;;4879408;29;20117;-76
2023/10/13 12:55:19;;;;;;;12.93;6.65;;;26.10;93.70;;;;;;4878618;29;20041;-76
2023/10/13 12:57:45;;;;;;;15.05;7.88;;;26.20;92.60;;;;;;4879496;29;20111;-77
2023/10/13 13:00:23;;;;;;;13.95;7.45;;;26.20;92.90;;;;;;4879063;29;20049;-77
2023/10/13 13:02:52;;;;;;;13.38;6.97;;;26.20;91.60;;;;;;4879233;29;20048;-76
2023/10/13 13:05:22;;;;;;;12.90;6.57;;;26.20;92.10;;;;;;4878654;29;20037;-76
2023/10/13 13:07:52;;;;;;;18.13;7.20;;;26.20;93.70;;;;;;4878816;29;20486;-77
2023/10/13 13:10:18;;;;;;;14.02;6.70;;;26.20;93.40;;;;;;4872309;29;20037;-76
2023/10/13 13:12:44;;;;;;;13.43;6.70;;;26.20;93.10;;;;;;4879021;29;20397;-76
2023/10/13 13:15:11;;;;;;;17.25;5.82;;;26.20;93.30;;;;;;4878609;29;20041;-77
2023/10/13 13:17:38;;;;;;;22.02;7.13;;;26.20;92.80;;;;;;4880126;29;20081;-75
2023/10/13 13:20:11;;;;;;;15.20;5.55;;;26.10;92.90;;;;;;4948481;29;20036;-75
2023/10/13 13:22:40;;;;;;;21.25;6.50;;;26.20;93.00;;;;;;4937327;29;20047;-76
2023/10/13 13:25:08;;;;;;;13.70;5.95;;;26.20;92.70;;;;;;4936714;29;20111;-76
2023/10/13 13:27:34;;;;;;;9.35;5.07;;;26.10;92.00;;;;;;4937007;29;20038;-76
2023/10/13 13:30:00;;;;;;;12.02;5.82;;;26.10;91.80;;;;;;4936697;29;20547;-77
2023/10/13 13:32:28;;;;;;;14.27;5.85;;;26.10;92.10;;;;;;4936519;29;20036;-76
2023/10/13 13:34:58;;;;;;;17.58;7.35;;;26.10;92.80;;;;;;4936858;29;20472;-76
2023/10/13 13:37:27;;;;;;;10.48;5.43;;;26.20;92.80;;;;;;4936731;29;20074;-76
2023/10/13 13:39:53;;;;;;;13.85;5.05;;;26.20;93.60;;;;;;4936746;29;20453;-76
2023/10/13 13:42:20;;;;;;;22.23;6.20;;;;;;;;;;4936369;29;20027;-75
2023/10/13 13:44:49;;;;;;;11.95;7.18;;;26.20;98.30;;;;;;4936857;29;20032;-75
2023/10/13 13:47:16;;;;;;;20.08;8.18;;;26.30;96.30;;;;;;4936385;29;20499;-76
2023/10/13 13:49:54;;;;;;;17.67;8.00;;;;;;;;;;4937099;29;20423;-77
2023/10/13 13:52:33;;;;;;;16.08;6.88;;;;;;;;;;4936618;29;20055;-76
2023/10/13 13:55:02;;;;;;;15.38;5.93;;;26.20;98.30;;;;;;4951895;29;20404;-76
2023/10/13 13:57:30;;;;;;;14.45;5.68;;;26.30;98.40;;;;;;4955434;29;20039;-76
2023/10/13 13:59:57;;;;;;;11.27;5.75;;;26.20;98.20;;;;;;4954982;29;20126;-76
2023/10/13 14:02:23;;;;;;;14.85;6.03;;;26.20;98.70;;;;;;4955389;29;20467;-77
2023/10/13 14:04:52;;;;;;;14.95;6.68;;;26.20;99.00;;;;;;4955527;29;20030;-76
2023/10/13 14:07:24;;;;;;;12.93;6.38;;;26.20;97.70;;;;;;4954468;29;20046;-77
2023/10/13 14:10:05;;;;;;;13.93;5.20;;;26.10;97.60;;;;;;4955393;29;20050;-76
2023/10/13 14:12:41;;;;;;;14.13;6.23;;;26.10;96.20;;;;;;4944772;29;20031;-76
2023/10/13 14:15:29;;;;;;;17.20;6.10;;;26.10;97.00;;;;;;4955796;29;20270;-76
2023/10/13 14:17:54;;;;;;;15.02;5.75;;;26.10;97.10;;;;;;4954355;29;20427;-76
2023/10/13 14:20:20;;;;;;;17.35;6.82;;;26.10;97.60;;;;;;4955483;29;20082;-75
2023/10/13 14:22:50;;;;;;;13.30;7.03;;;26.00;97.60;;;;;;4955085;29;20030;-77
2023/10/13 14:25:18;;;;;;;16.05;7.90;;;25.90;97.70;;;;;;4955250;29;20154;-77
2023/10/13 14:27:44;;;;;;;15.85;7.55;;;26.00;98.50;;;;;;4955138;29;20139;-77
2023/10/13 14:30:18;;;;;;;14.75;7.47;;;26.00;98.50;;;;;;4938209;29;20019;-76
2023/10/13 14:32:45;;;;;;;19.52;8.45;;;26.00;98.70;;;;;;4955055;29;20039;-77
2023/10/13 14:35:20;;;;;;;15.90;8.98;;;25.90;98.80;;;;;;4955337;29;20027;-76
2023/10/13 14:37:46;;;;;;;17.95;9.25;;;25.90;98.90;;;;;;4955114;29;20487;-76
2023/10/13 14:40:14;;;;;;;22.65;10.27;;;25.80;98.40;;;;;;4955481;29;20036;-78
2023/10/13 14:42:43;;;;;;;18.75;10.75;;;25.80;98.80;;;;;;4954991;29;20023;-77
2023/10/13 14:45:16;;;;;;;22.85;10.88;;;25.60;98.60;;;;;;4955092;29;20323;-77
2023/10/13 14:47:45;;;;;;;23.90;10.77;;;25.60;98.80;;;;;;4955554;29;20534;-76
2023/10/13 14:50:21;;;;;;;22.45;8.35;;;25.50;98.90;;;;;;4954186;28;20023;-77
2023/10/13 14:52:49;;;;;;;18.58;9.48;;;25.40;98.60;;;;;;4955329;29;20390;-76
2023/10/13 14:55:21;;;;;;;14.55;7.40;;;25.40;99.20;;;;;;4954938;29;20531;-77
2023/10/13 14:57:50;;;;;;;24.88;11.52;;;25.30;99.00;;;;;;4955300;29;20046;-77
2023/10/13 15:00:24;;;;;;;14.70;7.43;;;25.30;99.50;;;;;;4954823;29;20038;-76
2023/10/13 15:02:52;;;;;;;20.52;8.25;;;25.30;99.50;;;;;;4954586;29;20114;-77
2023/10/13 15:05:18;;;;;;;15.15;7.10;;;25.20;99.60;;;;;;4954607;29;20032;-76
2023/10/13 15:07:45;;;;;;;19.20;9.25;;;25.10;99.90;;;;;;4954765;29;20487;-76
2023/10/13 15:10:15;;;;;;;18.73;8.48;;;25.00;99.90;;;;;;4954420;29;20495;-76
2023/10/13 15:12:46;;;;;;;19.67;9.88;;;25.00;99.90;;;;;;4954562;29;20119;-76
2023/10/13 15:15:13;;;;;;;19.65;9.43;;;;;;;;;;4954875;29;20023;-76
2023/10/13 15:17:45;;;;;;;24.67;11.90;;;;;;;;;;4954436;29;20035;-76
2023/10/13 15:20:17;;;;;;;26.63;11.32;;;;;;;;;;4943069;29;20542;-76
2023/10/13 15:22:44;;;;;;;28.92;13.15;;;24.60;99.90;;;;;;4954501;29;20495;-77
2023/10/13 15:25:20;;;;;;;30.45;12.98;;;;;;;;;;4947329;29;20028;-75
2023/10/13 15:27:55;;;;;;;27.25;12.35;;;24.50;99.90;;;;;;4948221;29;20023;-77
2023/10/13 15:30:26;;;;;;;26.30;14.13;;;24.50;99.90;;;;;;4946044;29;20483;-76
2023/10/13 15:32:53;;;;;;;27.95;12.55;;;24.40;99.40;;;;;;4949660;29;20038;-75
2023/10/13 15:35:22;;;;;;;26.10;14.15;;;24.30;99.90;;;;;;4947484;29;20083;-76
2023/10/13 15:37:49;;;;;;;25.58;12.93;;;24.20;99.90;;;;;;4948926;29;20024;-76
2023/10/13 15:40:17;;;;;;;27.88;13.18;;;24.20;99.90;;;;;;4941864;29;20048;-75
2023/10/13 15:42:44;;;;;;;27.75;14.13;;;24.10;99.20;;;;;;4954408;29;20118;-76
2023/10/13 15:45:17;;;;;;;19.70;12.48;;;24.00;99.90;;;;;;4954319;29;20035;-76
2023/10/13 15:47:47;;;;;;;32.00;14.30;;;23.90;98.70;;;;;;4954691;29;20031;-75
2023/10/13 15:50:16;;;;;;;34.50;15.27;;;23.90;98.00;;;;;;4954366;29;20069;-76
2023/10/13 15:52:45;;;;;;;25.35;13.00;;;23.80;95.60;;;;;;4954292;29;20058;-75
2023/10/13 15:55:13;;;;;;;31.50;13.15;;;23.70;95.60;;;;;;4954336;29;20023;-76
2023/10/13 15:57:40;;;;;;;22.80;12.68;;;23.60;93.60;;;;;;4954276;29;20081;-77
2023/10/13 16:00:25;;;;;;;18.80;12.55;;;23.50;94.90;;;;;;4954740;28;20091;-76
2023/10/13 16:02:54;;;;;;;21.60;11.98;;;23.40;94.50;;;;;;4957760;29;20031;-78
2023/10/13 16:05:34;;;;;;;25.08;13.00;;;23.40;96.80;;;;;;4949214;29;20184;-73
2023/10/13 16:08:01;;;;;;;24.58;13.60;;;23.30;98.00;;;;;;4955596;29;20102;-77
2023/10/13 16:10:27;;;;;;;35.08;25.15;;;;;;;;;;4957968;29;20027;-74
2023/10/13 16:12:53;;;;;;;43.78;36.25;;;23.20;98.00;;;;;;4957582;29;20038;-75
2023/10/13 16:15:21;;;;;;;33.33;22.98;;;23.10;98.10;;;;;;4957930;29;20035;-75
2023/10/13 16:17:53;;;;;;;50.33;40.00;;;23.10;98.00;;;;;;4957374;29;20050;-75
2023/10/13 16:20:20;;;;;;;37.83;31.38;;;23.00;95.50;;;;;;4957744;29;20043;-76
2023/10/13 16:22:47;;;;;;;34.10;20.80;;;22.90;93.40;;;;;;4957325;29;20559;-75
2023/10/13 16:25:15;;;;;;;33.22;17.58;;;22.80;93.70;;;;;;4957811;29;20035;-76
2023/10/13 16:27:42;;;;;;;26.90;17.67;;;22.80;99.80;;;;;;4957376;29;20081;-77
2023/10/13 16:30:15;;;;;;;26.88;18.08;;;22.70;95.40;;;;;;4957516;29;20019;-77
2023/10/13 16:32:49;;;;;;;25.25;18.02;;;22.70;97.50;;;;;;4957179;29;20049;-77
2023/10/13 16:35:17;;;;;;;28.75;18.20;;;22.70;99.90;;;;;;4957282;29;20027;-77
2023/10/13 16:37:50;;;;;;;27.80;18.27;;;22.60;99.90;;;;;;4957233;29;20380;-76
2023/10/13 16:40:22;;;;;;;29.98;17.40;;;;;;;;;;4956674;29;20039;-76
2023/10/13 16:42:49;;;;;;;31.73;19.20;;;22.40;99.90;;;;;;4957501;29;20023;-76
2023/10/13 16:45:15;;;;;;;37.08;19.20;;;22.40;96.60;;;;;;4957077;29;20036;-76
2023/10/13 16:47:44;;;;;;;30.35;17.83;;;22.30;94.20;;;;;;4956966;29;20031;-76
2023/10/13 16:50:11;;;;;;;31.17;17.67;;;22.30;94.00;;;;;;4946596;29;20040;-77
2023/10/13 16:52:37;;;;;;;33.58;18.67;;;22.20;94.90;;;;;;4933342;29;20043;-76
2023/10/13 16:55:03;;;;;;;35.08;20.83;;;22.10;94.50;;;;;;4949458;29;20027;-78
2023/10/13 16:57:29;;;;;;;37.90;23.83;;;22.10;94.80;;;;;;4945981;29;20028;-74
2023/10/13 16:59:55;;;;;;;40.08;24.83;;;22.00;95.20;;;;;;4947899;29;20062;-76
2023/10/13 17:02:21;;;;;;;32.85;20.90;;;22.00;99.90;;;;;;4946696;29;20480;-76
2023/10/13 17:04:47;;;;;;;35.38;21.67;;;21.80;98.30;;;;;;4949870;29;20027;-75
2023/10/13 17:07:14;;;;;;;38.72;23.05;;;21.70;98.40;;;;;;4956738;29;20431;-76
2023/10/13 17:09:40;;;;;;;36.58;22.60;;;;;;;;;;4956914;29;20034;-78
2023/10/13 17:12:06;;;;;;;46.67;26.30;;;22.30;99.90;;;;;;4955742;28;20042;-75
2023/10/13 17:14:32;;;;;;;33.70;21.85;;;21.50;99.90;;;;;;4956994;29;20023;-76
2023/10/13 17:16:58;;;;;;;35.22;23.10;;;;;;;;;;4956128;29;20027;-76
2023/10/13 17:19:24;;;;;;;40.42;22.23;;;21.30;99.90;;;;;;4956739;29;20043;-77
2023/10/13 17:21:50;;;;;;;35.30;22.30;;;21.20;99.60;;;;;;4956326;29;20024;-77
2023/10/13 17:24:19;;;;;;;33.95;23.60;;;21.30;99.90;;;;;;4956394;29;20023;-77
2023/10/13 17:26:49;;;;;;;36.80;23.27;;;21.20;99.90;;;;;;4956535;29;20558;-78
2023/10/13 17:29:15;;;;;;;38.45;22.05;;;21.20;99.90;;;;;;4943404;29;20045;-75
2023/10/13 17:31:41;;;;;;;35.53;20.80;;;21.10;99.90;;;;;;4945429;29;20038;-76
2023/10/13 17:34:07;;;;;;;39.08;21.52;;;21.10;99.90;;;;;;4950352;29;20031;-76
2023/10/13 17:36:33;;;;;;;52.80;21.83;;;21.00;99.90;;;;;;4948727;29;20387;-76
2023/10/13 17:39:00;;;;;;;39.03;25.35;;;21.00;99.90;;;;;;4943905;29;20035;-78
2023/10/13 17:41:28;;;;;;;42.13;23.40;;;20.90;99.90;;;;;;4952149;29;20483;-76
2023/10/13 17:43:55;;;;;;;37.47;24.48;;;20.90;99.90;;;;;;4941687;29;20055;-77
2023/10/13 17:46:22;;;;;;;42.53;29.25;;;;;;;;;;4950065;29;20384;-76
2023/10/13 17:48:48;;;;;;;42.95;28.88;;;20.70;99.90;;;;;;4944081;29;20059;-78
2023/10/13 17:51:14;;;;;;;41.28;26.27;;;20.60;99.90;;;;;;4955934;29;20446;-78
2023/10/13 17:53:40;;;;;;;37.13;25.58;;;20.50;99.90;;;;;;4949605;29;20056;-77
2023/10/13 17:56:19;;;;;;;47.25;27.05;;;20.50;99.90;;;;;;4949523;29;20102;-76
2023/10/13 17:58:46;;;;;;;35.70;25.67;;;;;;;;;;4954343;29;20110;-77
2023/10/13 18:01:19;;;;;;;39.35;25.10;;;20.10;99.90;;;;;;4955807;29;20016;-75
2023/10/13 18:03:51;;;;;;;46.72;25.55;;;20.30;99.90;;;;;;4955913;29;20118;-76
2023/10/13 18:06:17;;;;;;;34.58;24.92;;;20.60;99.90;;;;;;4955882;29;20462;-77
2023/10/13 18:08:44;;;;;;;42.80;26.83;;;20.30;99.90;;;;;;4956137;29;20419;-76
2023/10/13 18:11:12;;;;;;;40.38;25.27;;;20.30;99.90;;;;;;4955596;29;20431;-77
2023/10/13 18:13:42;;;;;;;37.85;24.73;;;20.20;99.90;;;;;;4955528;29;20439;-75
2023/10/13 18:16:14;;;;;;;40.38;24.20;;;20.20;99.90;;;;;;4955390;29;20066;-77
2023/10/13 18:18:41;;;;;;;32.42;25.55;;;20.10;99.90;;;;;;4955248;29;20392;-77
2023/10/13 18:21:08;;;;;;;53.60;27.27;;;20.10;99.90;;;;;;4955968;29;20032;-75
2023/10/13 18:23:40;;;;;;;36.70;24.67;;;20.00;99.90;;;;;;4955402;28;20081;-76
2023/10/13 18:26:06;;;;;;;38.08;25.13;;;20.00;99.90;;;;;;4955490;29;20133;-77
2023/10/13 18:28:35;;;;;;;40.22;24.15;;;19.90;99.90;;;;;;4955310;29;20063;-77
2023/10/13 18:31:06;;;;;;;43.67;24.27;;;19.90;99.90;;;;;;4955622;29;20078;-77
2023/10/13 18:33:32;;;;;;;44.38;23.40;;;19.90;99.90;;;;;;4955663;29;20038;-77
2023/10/13 18:36:16;;;;;;;38.35;24.33;;;19.80;99.90;;;;;;4955493;29;20027;-76
2023/10/13 18:38:43;;;;;;;37.08;22.98;;;;;;;;;;4955702;29;20054;-77
2023/10/13 18:41:11;;;;;;;34.95;23.77;;;19.80;99.90;;;;;;4955475;29;20062;-76
2023/10/13 18:43:43;;;;;;;36.55;22.90;;;19.80;99.90;;;;;;4955051;29;20039;-75
2023/10/13 18:46:10;;;;;;;41.80;24.73;;;19.70;99.90;;;;;;4955233;29;20031;-75
2023/10/13 18:48:38;;;;;;;37.63;22.35;;;19.70;99.90;;;;;;4955573;29;20435;-77
2023/10/13 18:51:08;;;;;;;36.45;25.45;;;19.60;99.90;;;;;;4955256;29;20035;-77
2023/10/13 18:53:39;;;;;;;36.13;24.02;;;19.70;99.90;;;;;;4954981;29;20134;-77
2023/10/13 18:56:10;;;;;;;42.10;24.60;;;19.60;99.90;;;;;;4954921;29;20134;-76
2023/10/13 18:58:39;;;;;;;37.22;24.02;;;19.50;99.90;;;;;;4954746;29;20043;-76
2023/10/13 19:01:27;;;;;;;35.65;25.13;;;19.50;99.90;;;;;;4955155;29;20046;-77
2023/10/13 19:03:55;;;;;;;37.08;25.20;;;19.40;99.90;;;;;;4942025;29;20031;-77
2023/10/13 19:06:22;;;;;;;47.97;25.98;;;19.40;99.90;;;;;;4954864;29;20031;-77
2023/10/13 19:08:51;;;;;;;41.40;26.38;;;19.40;99.90;;;;;;4942222;29;20035;-75
2023/10/13 19:11:19;;;;;;;42.75;25.60;;;19.30;99.90;;;;;;4954771;29;20043;-77
2023/10/13 19:13:52;;;;;;;39.00;26.05;;;19.20;99.90;;;;;;4954582;29;20121;-77
2023/10/13 19:16:20;;;;;;;43.88;25.20;;;19.20;99.90;;;;;;4955133;29;20039;-78
2023/10/13 19:18:46;;;;;;;37.53;25.55;;;19.10;99.90;;;;;;4954748;29;20138;-76
2023/10/13 19:21:19;;;;;;;49.90;28.63;;;18.90;99.90;;;;;;4954431;29;20191;-77
2023/10/13 19:23:50;;;;;;;61.63;39.72;;;19.10;99.90;;;;;;4954710;29;20043;-77
2023/10/13 19:26:22;;;;;;;37.33;25.35;;;19.00;99.90;;;;;;4954861;29;20038;-76
2023/10/13 19:28:49;;;;;;;32.97;22.73;;;19.00;99.90;;;;;;4954775;29;20031;-77
2023/10/13 19:31:18;;;;;;;32.45;20.52;;;19.00;99.90;;;;;;4954994;29;20027;-77
2023/10/13 19:33:46;;;;;;;34.35;20.23;;;18.90;99.90;;;;;;4954723;29;20043;-76
2023/10/13 19:36:13;;;;;;;43.88;26.70;;;18.90;99.90;;;;;;4957098;28;20057;-77
2023/10/13 19:38:43;;;;;;;53.88;35.50;;;18.80;99.90;;;;;;4958823;29;20081;-76
2023/10/13 19:41:19;;;;;;;57.97;33.88;;;18.70;99.90;;;;;;4958430;29;20039;-78
2023/10/13 19:43:48;;;;;;;40.50;25.70;;;18.70;99.90;;;;;;4958210;29;20047;-75
2023/10/13 19:46:15;;;;;;;34.65;21.08;;;18.60;99.90;;;;;;4958621;29;20567;-75
2023/10/13 19:48:42;;;;;;;38.10;19.92;;;18.40;99.90;;;;;;4957963;29;20047;-76
2023/10/13 19:51:10;;;;;;;31.55;21.17;;;18.30;99.90;;;;;;4958447;29;20399;-77
2023/10/13 19:53:57;;;;;;;48.78;23.50;;;18.30;99.90;;;;;;4957786;29;20063;-74
2023/10/13 19:56:24;;;;;;;30.48;22.08;;;18.30;99.90;;;;;;4958474;29;20035;-76
2023/10/13 19:58:52;;;;;;;31.13;22.40;;;18.30;99.90;;;;;;4957917;29;20051;-76
2023/10/13 20:01:21;;;;;;;35.20;22.33;;;18.40;99.90;;;;;;4958648;29;20038;-78